Time;durP1;ratioP1;P1;durP2;ratioP2;P2;SDS_P1;SDS_P2;PMS_P1;PMS_P2;Temp;Humidity;BMP_temperature;BMP_pressure;BME280_temperature;BME280_humidity;BME280_pressure;Samples;Min_cycle;Max_cycle;Signal;HPM_P1;HPM_P2
2023/06/11 00:00:12;;;;;;;3.72;2.50;;;;;;;;;;5112078;28;20509;-62
2023/06/11 00:02:41;;;;;;;5.93;2.67;;;;;;;;;;5109725;28;20138;-62
2023/06/11 00:05:10;;;;;;;4.75;2.47;;;;;;;;;;5100279;28;20046;-61
2023/06/11 00:07:38;;;;;;;4.05;2.22;;;;;;;;;;5109211;28;20040;-61
2023/06/11 00:10:05;;;;;;;7.72;2.53;;;;;;;;;;5087910;28;20047;-62
2023/06/11 00:12:33;;;;;;;4.00;2.67;;;;;;;;;;5105411;28;20788;-61
2023/06/11 00:15:02;;;;;;;4.22;2.55;;;;;;;;;;5105610;27;20044;-61
2023/06/11 00:17:33;;;;;;;5.43;2.75;;;;;;;;;;5107449;28;20062;-61
2023/06/11 00:20:01;;;;;;;5.22;2.75;;;;;;;;;;5105319;28;20070;-62
2023/06/11 00:22:31;;;;;;;5.68;2.90;;;;;;;;;;5109220;27;20134;-62
2023/06/11 00:24:58;;;;;;;4.90;2.72;;;;;;;;;;5097930;28;20435;-61
2023/06/11 00:27:26;;;;;;;5.18;2.50;;;;;;;;;;5105777;28;20051;-61
2023/06/11 00:29:54;;;;;;;5.40;2.47;;;;;;;;;;5101252;28;20051;-61
2023/06/11 00:32:21;;;;;;;9.77;2.50;;;;;;;;;;5109127;28;20160;-61
2023/06/11 00:34:49;;;;;;;4.05;2.63;;;;;;;;;;5111862;28;20044;-61
2023/06/11 00:37:17;;;;;;;10.93;2.90;;;;;;;;;;5106060;28;20051;-61
2023/06/11 00:39:44;;;;;;;6.43;2.72;;;;;;;;;;5103791;28;20530;-61
2023/06/11 00:42:12;;;;;;;6.93;2.80;;;;;;;;;;5107189;28;20101;-61
2023/06/11 00:44:40;;;;;;;6.95;3.08;;;;;;;;;;5108644;28;20043;-62
2023/06/11 00:47:08;;;;;;;4.28;3.03;;;;;;;;;;5105803;28;20099;-61
2023/06/11 00:49:35;;;;;;;5.57;3.30;;;;;;;;;;5108441;28;20036;-61
2023/06/11 00:52:08;;;;;;;5.78;3.08;;;;;;;;;;5111260;28;20043;-61
2023/06/11 00:54:36;;;;;;;10.13;3.05;;;;;;;;;;5093254;28;20082;-61
2023/06/11 00:57:06;;;;;;;4.40;2.80;;;;;;;;;;5104507;28;20047;-61
2023/06/11 00:59:34;;;;;;;4.85;2.92;;;;;;;;;;5084008;28;20441;-61
2023/06/11 01:02:09;;;;;;;5.50;3.28;;;;;;;;;;5101854;28;20043;-61
2023/06/11 01:04:39;;;;;;;7.88;3.13;;;;;;;;;;5103421;28;20044;-62
2023/06/11 01:07:08;;;;;;;4.60;3.03;;;;;;;;;;5110673;28;20043;-62
2023/06/11 01:09:36;;;;;;;6.38;3.20;;;;;;;;;;5104117;28;20040;-61
2023/06/11 01:12:03;;;;;;;7.75;3.50;;;;;;;;;;5110127;28;20488;-61
2023/06/11 01:14:32;;;;;;;5.72;3.45;;;;;;;;;;5105108;28;20044;-62
2023/06/11 01:17:04;;;;;;;9.50;3.45;;;;;;;;;;5094048;28;20052;-61
2023/06/11 01:19:59;;;;;;;5.63;3.23;;;;;;;;;;5097058;28;20123;-62
2023/06/11 01:22:33;;;;;;;7.05;3.50;;;;;;;;;;5062886;28;20301;-62
2023/06/11 01:25:15;;;;;;;4.55;2.97;;;;;;;;;;5106433;28;20039;-61
2023/06/11 01:27:51;;;;;;;6.10;3.33;;;;;;;;;;5085106;28;20070;-62
2023/06/11 01:30:20;;;;;;;5.22;3.50;;;;;;;;;;5107135;28;20777;-61
2023/06/11 01:32:52;;;;;;;5.47;3.30;;;;;;;;;;5107788;28;20048;-61
2023/06/11 01:35:20;;;;;;;6.35;3.50;;;;;;;;;;5109796;28;20399;-61
2023/06/11 01:37:55;;;;;;;6.72;3.35;;;;;;;;;;5106181;28;20100;-62
2023/06/11 01:40:22;;;;;;;5.97;3.72;;;;;;;;;;5089881;28;20050;-61
2023/06/11 01:42:51;;;;;;;7.70;3.50;;;;;;;;;;5107267;28;20388;-62
2023/06/11 01:45:19;;;;;;;5.75;3.60;;;;;;;;;;5110194;27;20043;-61
2023/06/11 01:47:48;;;;;;;5.78;3.50;;;;;;;;;;5108872;28;20079;-61
2023/06/11 01:50:15;;;;;;;5.28;3.65;;;;;;;;;;5108385;28;20044;-62
2023/06/11 01:52:43;;;;;;;6.82;3.50;;;;;;;;;;5108887;28;20050;-62
2023/06/11 01:55:10;;;;;;;11.77;3.72;;;;;;;;;;5109424;28;20055;-61
2023/06/11 01:57:38;;;;;;;5.97;4.10;;;;;;;;;;5105518;28;20071;-61
2023/06/11 02:00:10;;;;;;;7.22;3.60;;;;;;;;;;5107768;28;20130;-61
2023/06/11 02:02:38;;;;;;;5.15;3.72;;;;;;;;;;5085739;28;20124;-62
2023/06/11 02:05:05;;;;;;;7.63;4.00;;;;;;;;;;5106975;28;20059;-62
2023/06/11 02:07:32;;;;;;;7.20;3.80;;;;;;;;;;5109669;28;20048;-62
2023/06/11 02:10:00;;;;;;;5.03;3.65;;;;;;;;;;5087439;28;20051;-61
2023/06/11 02:12:27;;;;;;;7.13;3.83;;;;;;;;;;5089126;28;20051;-61
2023/06/11 02:14:54;;;;;;;6.63;3.80;;;;;;;;;;5100657;28;20379;-61
2023/06/11 02:17:23;;;;;;;7.22;4.13;;;;;;;;;;5096442;28;20048;-62
2023/06/11 02:19:50;;;;;;;6.97;4.43;;;;;;;;;;5103323;28;20128;-62
2023/06/11 02:22:17;;;;;;;8.18;4.20;;;;;;;;;;5103723;28;20082;-62
2023/06/11 02:24:45;;;;;;;6.95;3.90;;;;;;;;;;5106301;28;20491;-62
2023/06/11 02:27:12;;;;;;;7.97;4.25;;;;;;;;;;5109529;28;20439;-62
2023/06/11 02:29:39;;;;;;;6.90;3.97;;;;;;;;;;5105852;28;20047;-62
2023/06/11 02:32:07;;;;;;;6.68;4.22;;;;;;;;;;5103669;28;20087;-61
2023/06/11 02:34:36;;;;;;;8.32;4.60;;;;;;;;;;5105001;28;20047;-61
2023/06/11 02:37:03;;;;;;;8.57;5.13;;;;;;;;;;5100653;28;20048;-61
2023/06/11 02:39:31;;;;;;;7.00;4.00;;;;;;;;;;5108612;28;20058;-61
2023/06/11 02:41:58;;;;;;;5.85;4.40;;;;;;;;;;5106018;28;20069;-62
2023/06/11 02:44:25;;;;;;;6.53;4.20;;;;;;;;;;5102645;28;20055;-61
2023/06/11 02:46:52;;;;;;;7.43;3.95;;;;;;;;;;5101969;28;20055;-62
2023/06/11 02:49:20;;;;;;;6.03;4.07;;;;;;;;;;5108597;28;20117;-61
2023/06/11 02:51:48;;;;;;;9.88;4.55;;;;;;;;;;5107960;28;20048;-61
2023/06/11 02:54:15;;;;;;;6.30;4.45;;;;;;;;;;5097481;28;20063;-62
2023/06/11 02:56:43;;;;;;;5.60;4.15;;;;;;;;;;5101301;28;20058;-61
2023/06/11 02:59:10;;;;;;;4.90;4.13;;;;;;;;;;5108392;28;20047;-61
2023/06/11 03:01:38;;;;;;;6.55;4.43;;;;;;;;;;5091550;28;20047;-61
2023/06/11 03:04:06;;;;;;;6.28;3.83;;;;;;;;;;5107608;28;20172;-62
2023/06/11 03:06:33;;;;;;;6.90;4.47;;;;;;;;;;5100723;28;20447;-62
2023/06/11 03:09:02;;;;;;;5.82;3.75;;;;;;;;;;5105581;28;20054;-61
2023/06/11 03:11:29;;;;;;;7.88;4.47;;;;;;;;;;5111933;27;20046;-61
2023/06/11 03:13:57;;;;;;;7.22;4.30;;;;;;;;;;5107463;27;20086;-61
2023/06/11 03:16:24;;;;;;;7.03;4.05;;;;;;;;;;5105600;28;20062;-61
2023/06/11 03:18:51;;;;;;;6.03;4.25;;;;;;;;;;5113222;28;20090;-62
2023/06/11 03:21:18;;;;;;;5.07;4.00;;;;;;;;;;5105230;28;20096;-61
2023/06/11 03:23:45;;;;;;;8.27;4.57;;;;;;;;;;5112821;28;20308;-62
2023/06/11 03:26:14;;;;;;;5.00;4.00;;;;;;;;;;5107076;28;20046;-61
2023/06/11 03:28:42;;;;;;;6.22;4.50;;;;;;;;;;5110726;28;20058;-61
2023/06/11 03:31:09;;;;;;;8.93;4.50;;;;;;;;;;5109639;28;20061;-61
2023/06/11 03:33:36;;;;;;;5.80;4.47;;;;;;;;;;5104987;28;20078;-61
2023/06/11 03:36:03;;;;;;;5.68;4.00;;;;;;;;;;5110761;28;20055;-61
2023/06/11 03:38:31;;;;;;;6.70;4.75;;;;;;;;;;5084232;28;20052;-62
2023/06/11 03:40:58;;;;;;;9.68;4.72;;;;;;;;;;5111660;28;20051;-61
2023/06/11 03:43:26;;;;;;;6.50;4.18;;;;;;;;;;5109893;27;20051;-61
2023/06/11 03:45:54;;;;;;;7.15;4.22;;;;;;;;;;5107926;28;20043;-61
2023/06/11 03:48:21;;;;;;;6.68;4.28;;;;;;;;;;5105658;28;20047;-61
2023/06/11 03:50:48;;;;;;;5.80;4.40;;;;;;;;;;5109362;28;20048;-62
2023/06/11 03:53:16;;;;;;;8.23;4.75;;;;;;;;;;5111560;28;20055;-61
2023/06/11 03:55:43;;;;;;;6.45;4.60;;;;;;;;;;5106150;28;20510;-61
2023/06/11 03:58:10;;;;;;;7.53;4.60;;;;;;;;;;5111019;28;20082;-61
2023/06/11 04:00:39;;;;;;;6.55;4.63;;;;;;;;;;5107541;28;20051;-62
2023/06/11 04:03:06;;;;;;;6.28;4.40;;;;;;;;;;5109016;27;20056;-62
2023/06/11 04:05:36;;;;;;;7.63;5.03;;;;;;;;;;5110646;28;20075;-62
2023/06/11 04:08:03;;;;;;;8.68;4.15;;;;;;;;;;5107243;28;20146;-61
2023/06/11 04:10:30;;;;;;;7.20;4.25;;;;;;;;;;5100840;28;20058;-61
2023/06/11 04:12:58;;;;;;;6.28;4.30;;;;;;;;;;5107315;27;20482;-61
2023/06/11 04:15:25;;;;;;;6.88;4.50;;;;;;;;;;5092463;28;20133;-61
2023/06/11 04:17:54;;;;;;;8.43;4.72;;;;;;;;;;5105504;28;20122;-62
2023/06/11 04:20:21;;;;;;;6.50;4.38;;;;;;;;;;5109201;28;20040;-62
2023/06/11 04:22:48;;;;;;;5.57;4.53;;;;;;;;;;5105859;28;20055;-62
2023/06/11 04:25:16;;;;;;;6.50;4.63;;;;;;;;;;5109572;28;20112;-62
2023/06/11 04:27:44;;;;;;;6.43;4.90;;;;;;;;;;5107458;28;20044;-61
2023/06/11 04:30:12;;;;;;;6.18;4.57;;;;;;;;;;5105571;28;20040;-62
2023/06/11 04:32:40;;;;;;;6.13;4.65;;;;;;;;;;5107957;28;20058;-62
2023/06/11 04:35:09;;;;;;;6.93;4.72;;;;;;;;;;5107717;28;20052;-61
2023/06/11 04:37:40;;;;;;;6.60;4.68;;;;;;;;;;5110493;28;20051;-61
2023/06/11 04:40:10;;;;;;;6.30;4.50;;;;;;;;;;5092345;28;20083;-61
2023/06/11 04:42:40;;;;;;;7.82;5.13;;;;;;;;;;5105873;27;20453;-61
2023/06/11 04:45:09;;;;;;;5.88;4.30;;;;;;;;;;5110942;27;20047;-61
2023/06/11 04:47:36;;;;;;;7.85;5.20;;;;;;;;;;5100627;28;20105;-61
2023/06/11 04:50:05;;;;;;;7.85;5.03;;;;;;;;;;5109845;28;20058;-62
2023/06/11 04:52:35;;;;;;;5.93;4.57;;;;;;;;;;5106700;28;20072;-62
2023/06/11 04:55:03;;;;;;;7.88;4.95;;;;;;;;;;5106623;28;20058;-61
2023/06/11 04:57:32;;;;;;;7.00;4.72;;;;;;;;;;5100537;28;20048;-61
2023/06/11 04:59:59;;;;;;;9.75;4.72;;;;;;;;;;5107335;28;20044;-61
2023/06/11 05:02:28;;;;;;;5.60;4.30;;;;;;;;;;5105371;28;20487;-61
2023/06/11 05:04:57;;;;;;;6.38;4.90;;;;;;;;;;5107457;28;20070;-61
2023/06/11 05:07:24;;;;;;;6.68;4.75;;;;;;;;;;5099676;28;20094;-61
2023/06/11 05:09:53;;;;;;;7.82;5.38;;;;;;;;;;5107949;28;20700;-61
2023/06/11 05:12:20;;;;;;;8.02;4.78;;;;;;;;;;5110187;28;20051;-61
2023/06/11 05:14:47;;;;;;;9.85;5.25;;;;;;;;;;5101001;27;20043;-61
2023/06/11 05:17:15;;;;;;;8.13;4.78;;;;;;;;;;5104080;28;20351;-61
2023/06/11 05:19:42;;;;;;;6.80;5.10;;;;;;;;;;5098864;28;20052;-61
2023/06/11 05:22:10;;;;;;;7.55;4.97;;;;;;;;;;5089396;28;20096;-62
2023/06/11 05:24:41;;;;;;;8.75;5.00;;;;;;;;;;5091973;28;20047;-62
2023/06/11 05:27:10;;;;;;;7.47;5.13;;;;;;;;;;5110139;28;20058;-61
2023/06/11 05:29:37;;;;;;;8.35;4.72;;;;;;;;;;5104754;28;20062;-61
2023/06/11 05:32:05;;;;;;;6.85;4.70;;;;;;;;;;5100062;28;20054;-61
2023/06/11 05:34:33;;;;;;;6.63;5.03;;;;;;;;;;5109317;28;20489;-61
2023/06/11 05:37:01;;;;;;;7.28;5.10;;;;;;;;;;5102449;28;20461;-62
2023/06/11 05:39:28;;;;;;;6.13;4.63;;;;;;;;;;5095043;28;20055;-61
2023/06/11 05:41:55;;;;;;;8.77;4.80;;;;;;;;;;5094755;28;20083;-61
2023/06/11 05:44:24;;;;;;;6.55;5.18;;;;;;;;;;5101768;27;20449;-62
2023/06/11 05:46:51;;;;;;;8.80;4.70;;;;;;;;;;5106074;28;20048;-61
2023/06/11 05:49:18;;;;;;;7.38;5.25;;;;;;;;;;5106064;28;20044;-61
2023/06/11 05:51:45;;;;;;;7.57;5.10;;;;;;;;;;5109573;28;20066;-63
2023/06/11 05:54:12;;;;;;;6.50;4.93;;;;;;;;;;5097507;28;20502;-62
2023/06/11 05:56:40;;;;;;;8.70;5.40;;;;;;;;;;5106118;28;20044;-62
2023/06/11 05:59:07;;;;;;;8.35;5.72;;;;;;;;;;5107507;28;20048;-62
2023/06/11 06:01:36;;;;;;;9.45;5.82;;;;;;;;;;5108410;27;20397;-62
2023/06/11 06:04:04;;;;;;;10.07;4.95;;;;;;;;;;5102748;28;20114;-62
2023/06/11 06:06:32;;;;;;;6.68;5.15;;;;;;;;;;5106536;28;20522;-63
2023/06/11 06:09:00;;;;;;;6.88;5.10;;;;;;;;;;5104358;28;20048;-63
2023/06/11 06:11:27;;;;;;;7.03;5.25;;;;;;;;;;5102227;28;20130;-63
2023/06/11 06:13:54;;;;;;;6.97;4.53;;;;;;;;;;5102100;28;20104;-63
2023/06/11 06:16:22;;;;;;;7.47;5.13;;;;;;;;;;5102332;28;20040;-63
2023/06/11 06:18:50;;;;;;;7.88;4.80;;;;;;;;;;5106860;28;20410;-62
2023/06/11 06:21:17;;;;;;;11.45;5.10;;;;;;;;;;5101521;28;20552;-63
2023/06/11 06:23:45;;;;;;;8.45;5.10;;;;;;;;;;5106581;28;20052;-62
2023/06/11 06:26:13;;;;;;;5.75;4.22;;;;;;;;;;5107415;28;20133;-63
2023/06/11 06:28:40;;;;;;;6.00;4.72;;;;;;;;;;5105228;28;20069;-62
2023/06/11 06:31:07;;;;;;;6.45;4.63;;;;;;;;;;5100668;28;20388;-63
2023/06/11 06:33:37;;;;;;;6.38;5.07;;;;;;;;;;5099298;28;20082;-63
2023/06/11 06:36:06;;;;;;;6.75;4.85;;;;;;;;;;5088660;28;20051;-63
2023/06/11 06:38:35;;;;;;;5.93;4.30;;;;;;;;;;5106974;28;20460;-62
2023/06/11 06:41:03;;;;;;;7.22;4.65;;;;;;;;;;5108729;28;20123;-63
2023/06/11 06:43:30;;;;;;;6.28;4.88;;;;;;;;;;5089991;28;20055;-63
2023/06/11 06:45:58;;;;;;;6.90;4.35;;;;;;;;;;5110108;28;20460;-62
2023/06/11 06:48:25;;;;;;;7.28;4.43;;;;;;;;;;5109794;28;20050;-62
2023/06/11 06:50:53;;;;;;;6.47;4.45;;;;;;;;;;5104675;27;20078;-62
2023/06/11 06:53:21;;;;;;;8.65;4.18;;;;;;;;;;5108203;28;20053;-62
2023/06/11 06:55:49;;;;;;;5.70;4.13;;;;;;;;;;5094808;28;20068;-62
2023/06/11 06:58:16;;;;;;;5.85;4.53;;;;;;;;;;5089341;28;20056;-62
2023/06/11 07:00:45;;;;;;;6.45;4.68;;;;;;;;;;5106148;27;20044;-62
2023/06/11 07:03:13;;;;;;;5.95;4.07;;;;;;;;;;5112477;28;20051;-62
2023/06/11 07:05:40;;;;;;;6.60;4.20;;;;;;;;;;5108111;28;20047;-62
2023/06/11 07:08:08;;;;;;;7.60;4.30;;;;;;;;;;5108399;27;20058;-62
2023/06/11 07:10:37;;;;;;;9.00;4.47;;;;;;;;;;5109508;28;20078;-62
2023/06/11 07:13:04;;;;;;;8.27;4.53;;;;;;;;;;5109533;28;20054;-63
2023/06/11 07:15:31;;;;;;;6.82;4.35;;;;;;;;;;5110998;27;20043;-61
2023/06/11 07:17:58;;;;;;;5.65;4.63;;;;;;;;;;5108093;27;20047;-61
2023/06/11 07:20:26;;;;;;;7.30;4.53;;;;;;;;;;5108060;28;20403;-65
2023/06/11 07:22:53;;;;;;;7.50;4.20;;;;;;;;;;5110513;28;20051;-64
2023/06/11 07:25:20;;;;;;;5.88;4.60;;;;;;;;;;5106632;28;20493;-65
2023/06/11 07:27:49;;;;;;;5.28;3.97;;;;;;;;;;5107759;27;20050;-65
2023/06/11 07:30:16;;;;;;;5.47;4.30;;;;;;;;;;5098636;28;20040;-66
2023/06/11 07:32:43;;;;;;;5.00;4.05;;;;;;;;;;5110487;28;20035;-66
2023/06/11 07:35:10;;;;;;;6.03;4.63;;;;;;;;;;5106389;28;20399;-65
2023/06/11 07:37:38;;;;;;;6.63;4.00;;;;;;;;;;5093496;28;20060;-66
2023/06/11 07:40:05;;;;;;;7.72;4.78;;;;;;;;;;5106854;28;20051;-66
2023/06/11 07:42:33;;;;;;;6.97;4.38;;;;;;;;;;5111363;28;20052;-68
2023/06/11 07:45:02;;;;;;;5.93;4.43;;;;;;;;;;5113379;27;20055;-68
2023/06/11 07:47:29;;;;;;;5.63;4.57;;;;;;;;;;5103607;28;20137;-67
2023/06/11 07:49:56;;;;;;;5.20;4.20;;;;;;;;;;5107350;28;20075;-67
2023/06/11 07:52:24;;;;;;;10.05;4.28;;;;;;;;;;5109086;28;20051;-67
2023/06/11 07:54:51;;;;;;;5.40;3.90;;;;;;;;;;5100117;28;20059;-67
2023/06/11 07:57:18;;;;;;;6.70;4.57;;;;;;;;;;5104285;28;20046;-67
2023/06/11 07:59:45;;;;;;;5.97;4.00;;;;;;;;;;5108120;28;20383;-67
2023/06/11 08:02:14;;;;;;;6.70;4.40;;;;;;;;;;5103934;28;20047;-68
2023/06/11 08:04:41;;;;;;;5.78;4.55;;;;;;;;;;5103007;28;20044;-67
2023/06/11 08:07:09;;;;;;;4.70;4.13;;;;;;;;;;5102541;28;20048;-67
2023/06/11 08:09:37;;;;;;;4.20;3.80;;;;;;;;;;5101617;28;20499;-67
2023/06/11 08:12:05;;;;;;;5.38;4.00;;;;;;;;;;5102644;28;20040;-67
2023/06/11 08:14:33;;;;;;;5.78;4.00;;;;;;;;;;5111129;27;20055;-68
2023/06/11 08:17:01;;;;;;;8.52;4.47;;;;;;;;;;5108317;28;20384;-68
2023/06/11 08:19:29;;;;;;;148.90;13.00;;;;;;;;;;5100040;28;20048;-68
2023/06/11 08:21:56;;;;;;;22.50;4.95;;;;;;;;;;5081896;28;20051;-67
2023/06/11 08:24:24;;;;;;;6.45;4.60;;;;;;;;;;5111500;28;20058;-67
2023/06/11 08:26:51;;;;;;;6.80;4.07;;;;;;;;;;5109897;28;20174;-67
2023/06/11 08:29:20;;;;;;;6.05;3.90;;;;;;;;;;5102500;27;20043;-67
2023/06/11 08:31:47;;;;;;;5.03;3.78;;;;;;;;;;5103369;28;20044;-67
2023/06/11 08:34:14;;;;;;;5.57;4.18;;;;;;;;;;5105598;28;20497;-67
2023/06/11 08:36:44;;;;;;;6.22;4.50;;;;;;;;;;5110585;28;20047;-65
2023/06/11 08:39:11;;;;;;;6.50;4.13;;;;;;;;;;5106190;28;20440;-64
2023/06/11 08:41:38;;;;;;;7.53;4.60;;;;;;;;;;5109256;28;20088;-64
2023/06/11 08:44:05;;;;;;;5.53;3.95;;;;;;;;;;5105897;28;20051;-64
2023/06/11 08:46:35;;;;;;;5.32;3.97;;;;;;;;;;5105680;27;20057;-64
2023/06/11 08:49:06;;;;;;;5.38;3.90;;;;;;;;;;5102827;28;20055;-64
2023/06/11 08:51:36;;;;;;;5.28;3.78;;;;;;;;;;5105386;28;20130;-64
2023/06/11 08:54:07;;;;;;;6.85;4.35;;;;;;;;;;5104203;28;20096;-65
2023/06/11 08:56:34;;;;;;;5.63;4.55;;;;;;;;;;5086718;28;20048;-65
2023/06/11 08:59:02;;;;;;;6.03;4.15;;;;;;;;;;5108087;28;20040;-64
2023/06/11 09:01:29;;;;;;;5.95;4.00;;;;;;;;;;5107275;28;20537;-64
2023/06/11 09:03:57;;;;;;;5.57;4.63;;;;;;;;;;5109264;28;20510;-64
2023/06/11 09:06:24;;;;;;;5.28;4.20;;;;;;;;;;5102630;28;20062;-64
2023/06/11 09:08:58;;;;;;;6.82;3.97;;;;;;;;;;5107826;27;20082;-65
2023/06/11 09:11:31;;;;;;;6.90;3.97;;;;;;;;;;5108260;28;20097;-64
2023/06/11 09:13:58;;;;;;;;;;;;;;;;;;5103875;27;19919;-64
2023/06/11 09:16:26;;;;;;;4.80;4.13;;;;;;;;;;5108592;28;19924;-64
2023/06/11 09:18:53;;;;;;;8.07;4.28;;;;;;;;;;5107912;28;20051;-64
2023/06/11 09:21:20;;;;;;;5.47;4.20;;;;;;;;;;5108465;28;20055;-64
2023/06/11 09:23:48;;;;;;;4.95;3.95;;;;;;;;;;5100607;28;20050;-64
2023/06/11 09:26:18;;;;;;;6.28;4.18;;;;;;;;;;5107301;28;20052;-64
2023/06/11 09:28:47;;;;;;;4.30;3.80;;;;;;;;;;5103127;28;20140;-64
2023/06/11 09:31:14;;;;;;;9.15;4.10;;;;;;;;;;5103196;28;20043;-64
2023/06/11 09:33:41;;;;;;;4.50;3.72;;;;;;;;;;5108112;28;20593;-65
2023/06/11 09:36:10;;;;;;;6.75;3.70;;;;;;;;;;5094338;28;20047;-64
2023/06/11 09:38:37;;;;;;;4.22;3.53;;;;;;;;;;5106834;28;20059;-63
2023/06/11 09:41:06;;;;;;;6.90;3.90;;;;;;;;;;5102663;28;20509;-65
2023/06/11 09:43:35;;;;;;;8.48;4.10;;;;;;;;;;5106228;28;20072;-64
2023/06/11 09:46:03;;;;;;;5.30;4.18;;;;;;;;;;5100413;28;20707;-64
2023/06/11 09:48:31;;;;;;;7.80;4.00;;;;;;;;;;5109512;28;20048;-64
2023/06/11 09:51:00;;;;;;;7.57;4.07;;;;;;;;;;5108983;28;20478;-64
2023/06/11 09:53:29;;;;;;;5.65;4.00;;;;;;;;;;5104952;28;20082;-64
2023/06/11 09:55:57;;;;;;;6.65;4.25;;;;;;;;;;5103226;28;20043;-65
2023/06/11 09:58:24;;;;;;;5.15;3.83;;;;;;;;;;5105121;28;20070;-64
2023/06/11 10:00:58;;;;;;;5.53;3.95;;;;;;;;;;5100977;28;20543;-64
2023/06/11 10:03:27;;;;;;;5.80;4.30;;;;;;;;;;5108200;28;20423;-64
2023/06/11 10:05:54;;;;;;;8.77;5.63;;;;;;;;;;5087291;28;20425;-64
2023/06/11 10:08:22;;;;;;;4.97;4.20;;;;;;;;;;5107955;28;20088;-64
2023/06/11 10:10:53;;;;;;;5.07;4.32;;;;;;;;;;5108204;28;20091;-64
2023/06/11 10:13:29;;;;;;;5.45;4.40;;;;;;;;;;5107320;28;20048;-64
2023/06/11 10:15:56;;;;;;;6.05;4.30;;;;;;;;;;5103757;28;20112;-64
2023/06/11 10:18:25;;;;;;;5.32;4.05;;;;;;;;;;5102678;28;20055;-65
2023/06/11 10:20:54;;;;;;;4.20;3.70;;;;;;;;;;5109350;27;20083;-64
2023/06/11 10:23:21;;;;;;;4.45;3.78;;;;;;;;;;5110931;28;20074;-64
2023/06/11 10:25:55;;;;;;;4.22;3.60;;;;;;;;;;5111199;28;20052;-64
2023/06/11 10:28:24;;;;;;;5.78;4.03;;;;;;;;;;5088125;28;20044;-64
2023/06/11 10:30:54;;;;;;;5.28;3.80;;;;;;;;;;5100264;27;20044;-65
2023/06/11 10:33:22;;;;;;;6.65;3.90;;;;;;;;;;5109732;28;20044;-64
2023/06/11 10:35:50;;;;;;;8.88;4.05;;;;;;;;;;5109294;28;20071;-65
2023/06/11 10:38:18;;;;;;;4.70;3.85;;;;;;;;;;5106436;28;20139;-65
2023/06/11 10:40:48;;;;;;;4.40;3.90;;;;;;;;;;5089236;28;20044;-65
2023/06/11 10:43:20;;;;;;;6.15;3.70;;;;;;;;;;5110677;27;20114;-65
2023/06/11 10:45:48;;;;;;;4.43;3.78;;;;;;;;;;5110533;28;20491;-65
2023/06/11 10:48:17;;;;;;;5.07;4.20;;;;;;;;;;5097066;28;20079;-65
2023/06/11 10:50:44;;;;;;;6.20;3.90;;;;;;;;;;5112155;28;21817;-64
2023/06/11 10:53:13;;;;;;;4.38;3.85;;;;;;;;;;5112728;28;20390;-64
2023/06/11 10:55:47;;;;;;;4.93;3.85;;;;;;;;;;5110884;28;20058;-65
2023/06/11 10:58:21;;;;;;;5.05;3.80;;;;;;;;;;5110450;27;20043;-65
2023/06/11 11:00:52;;;;;;;5.32;4.07;;;;;;;;;;5111307;28;20051;-65
2023/06/11 11:03:22;;;;;;;4.25;3.72;;;;;;;;;;5088920;28;20055;-65
2023/06/11 11:05:51;;;;;;;5.32;4.25;;;;;;;;;;5111083;28;20059;-65
2023/06/11 11:08:18;;;;;;;4.32;3.92;;;;;;;;;;5110321;28;20521;-65
2023/06/11 11:10:47;;;;;;;5.75;3.88;;;;;;;;;;5108116;28;20067;-65
2023/06/11 11:13:14;;;;;;;4.10;3.70;;;;;;;;;;5105635;28;20158;-65
2023/06/11 11:15:42;;;;;;;4.13;3.63;;;;;;;;;;5111337;28;20040;-65
2023/06/11 11:18:09;;;;;;;4.15;3.75;;;;;;;;;;5106061;28;20075;-65
2023/06/11 11:20:37;;;;;;;4.00;3.60;;;;;;;;;;5111206;28;20444;-65
2023/06/11 11:23:04;;;;;;;5.25;4.00;;;;;;;;;;5111198;28;20055;-65
2023/06/11 11:25:32;;;;;;;4.03;3.63;;;;;;;;;;5111107;27;20126;-65
2023/06/11 11:28:00;;;;;;;4.88;3.58;;;;;;;;;;5092725;28;20052;-65
2023/06/11 11:30:28;;;;;;;3.88;3.40;;;;;;;;;;5112282;28;20039;-65
2023/06/11 11:32:55;;;;;;;4.68;3.85;;;;;;;;;;5109659;28;20040;-65
2023/06/11 11:35:25;;;;;;;3.47;3.17;;;;;;;;;;5102800;28;20494;-66
2023/06/11 11:37:54;;;;;;;6.05;3.85;;;;;;;;;;5106420;28;20105;-67
2023/06/11 11:40:21;;;;;;;3.80;3.50;;;;;;;;;;5111689;28;20052;-66
2023/06/11 11:42:52;;;;;;;3.47;3.17;;;;;;;;;;5109575;28;20387;-66
2023/06/11 11:45:21;;;;;;;4.03;3.25;;;;;;;;;;5110179;28;20048;-66
2023/06/11 11:47:51;;;;;;;4.30;3.25;;;;;;;;;;5109736;28;20051;-65
2023/06/11 11:50:21;;;;;;;3.63;3.28;;;;;;;;;;5108284;27;20082;-66
2023/06/11 11:53:01;;;;;;;3.35;2.97;;;;;;;;;;5111423;28;20056;-66
2023/06/11 11:55:29;;;;;;;5.47;3.50;;;;;;;;;;5107345;27;20054;-66
2023/06/11 11:58:02;;;;;;;3.88;3.10;;;;;;;;;;5111597;27;20131;-66
2023/06/11 12:00:31;;;;;;;3.80;2.97;;;;;;;;;;5104162;28;20055;-63
2023/06/11 12:03:00;;;;;;;6.45;3.13;;;;;;;;;;5106815;27;20074;-63
2023/06/11 12:05:30;;;;;;;3.15;2.85;;;;;;;;;;5111982;27;20043;-64
2023/06/11 12:07:57;;;;;;;3.70;3.38;;;;;;;;;;5110160;27;20135;-63
2023/06/11 12:10:26;;;;;;;3.13;2.80;;;;;;;;;;5109675;28;20047;-63
2023/06/11 12:12:54;;;;;;;3.70;3.30;;;;;;;;;;5108435;28;20062;-65
2023/06/11 12:15:21;;;;;;;3.60;3.30;;;;;;;;;;5110681;27;20055;-68
2023/06/11 12:17:51;;;;;;;3.67;3.10;;;;;;;;;;5109721;28;20138;-68
2023/06/11 12:20:20;;;;;;;4.22;3.20;;;;;;;;;;5108972;27;20449;-68
2023/06/11 12:22:48;;;;;;;4.50;3.00;;;;;;;;;;5108514;28;20087;-67
2023/06/11 12:25:15;;;;;;;3.78;3.33;;;;;;;;;;5110764;27;20083;-68
2023/06/11 12:27:44;;;;;;;4.28;3.70;;;;;;;;;;5109392;28;20126;-68
2023/06/11 12:30:12;;;;;;;6.20;3.53;;;;;;;;;;5109004;27;20371;-68
2023/06/11 12:32:39;;;;;;;4.70;3.40;;;;;;;;;;5108286;27;20078;-68
2023/06/11 12:35:08;;;;;;;3.65;3.22;;;;;;;;;;5106844;27;20116;-68
2023/06/11 12:37:36;;;;;;;3.63;3.20;;;;;;;;;;5107380;27;20082;-68
2023/06/11 12:40:04;;;;;;;3.47;3.17;;;;;;;;;;5107041;28;20062;-69
2023/06/11 12:42:32;;;;;;;3.22;2.92;;;;;;;;;;5106171;28;20059;-69
2023/06/11 12:45:00;;;;;;;3.53;3.22;;;;;;;;;;5105118;28;20131;-69
2023/06/11 12:47:27;;;;;;;4.07;3.67;;;;;;;;;;5108751;28;20071;-68
2023/06/11 12:49:54;;;;;;;3.65;3.28;;;;;;;;;;5111320;28;20067;-68
2023/06/11 12:52:23;;;;;;;3.30;2.90;;;;;;;;;;5109172;28;20126;-68
2023/06/11 12:54:50;;;;;;;4.25;3.47;;;;;;;;;;5110188;28;20632;-67
2023/06/11 12:57:17;;;;;;;3.63;3.33;;;;;;;;;;5106983;28;20040;-67
2023/06/11 12:59:45;;;;;;;3.80;3.50;;;;;;;;;;5099149;27;20058;-67
2023/06/11 13:02:15;;;;;;;3.70;3.40;;;;;;;;;;5103978;27;20131;-67
2023/06/11 13:04:43;;;;;;;3.30;3.00;;;;;;;;;;5086962;28;20050;-67
2023/06/11 13:07:10;;;;;;;3.90;3.50;;;;;;;;;;5105886;28;20040;-67
2023/06/11 13:09:39;;;;;;;4.10;3.78;;;;;;;;;;5103598;28;20059;-67
2023/06/11 13:12:06;;;;;;;4.55;3.70;;;;;;;;;;5098857;28;20062;-67
2023/06/11 13:14:34;;;;;;;3.80;3.50;;;;;;;;;;5109330;28;20071;-67
2023/06/11 13:17:01;;;;;;;4.00;3.70;;;;;;;;;;5085725;28;20418;-67
2023/06/11 13:19:28;;;;;;;4.07;3.42;;;;;;;;;;5083393;28;20051;-67
2023/06/11 13:21:56;;;;;;;4.05;3.67;;;;;;;;;;5106773;28;20055;-67
2023/06/11 13:24:24;;;;;;;3.95;3.58;;;;;;;;;;5106516;28;20051;-67
2023/06/11 13:26:52;;;;;;;4.40;3.85;;;;;;;;;;5105592;28;21559;-67
2023/06/11 13:29:22;;;;;;;4.32;3.92;;;;;;;;;;5105337;27;20093;-67
2023/06/11 13:31:50;;;;;;;4.30;3.45;;;;;;;;;;5086054;28;20083;-67
2023/06/11 13:34:17;;;;;;;3.70;3.40;;;;;;;;;;5107405;28;20126;-67
2023/06/11 13:36:45;;;;;;;5.18;3.50;;;;;;;;;;5107669;28;20047;-67
2023/06/11 13:39:12;;;;;;;4.07;3.70;;;;;;;;;;5087674;28;20532;-67
2023/06/11 13:41:41;;;;;;;3.70;3.40;;;;;;;;;;5110659;28;20047;-68
2023/06/11 13:44:09;;;;;;;3.90;3.60;;;;;;;;;;5088713;28;20048;-67
2023/06/11 13:46:36;;;;;;;4.18;3.78;;;;;;;;;;5106316;28;20510;-67
2023/06/11 13:49:04;;;;;;;4.53;4.13;;;;;;;;;;5107187;28;20047;-67
2023/06/11 13:51:33;;;;;;;4.07;3.78;;;;;;;;;;5108900;28;20043;-68
2023/06/11 13:54:00;;;;;;;4.25;3.95;;;;;;;;;;5104418;28;20066;-68
2023/06/11 13:56:28;;;;;;;4.88;4.38;;;;;;;;;;5108753;28;20056;-67
2023/06/11 13:58:55;;;;;;;4.63;3.75;;;;;;;;;;5088925;28;20063;-67
2023/06/11 14:01:24;;;;;;;4.25;3.88;;;;;;;;;;5103071;28;20093;-67
2023/06/11 14:03:51;;;;;;;4.20;3.85;;;;;;;;;;5108176;28;20096;-67
2023/06/11 14:06:19;;;;;;;5.25;3.90;;;;;;;;;;5105401;28;20051;-68
2023/06/11 14:08:46;;;;;;;4.40;3.95;;;;;;;;;;5105661;28;20043;-67
2023/06/11 14:11:16;;;;;;;4.57;4.18;;;;;;;;;;5105249;28;20101;-67
2023/06/11 14:13:44;;;;;;;5.10;4.40;;;;;;;;;;5109668;28;20058;-68
2023/06/11 14:16:11;;;;;;;4.40;4.00;;;;;;;;;;5107195;28;20058;-68
2023/06/11 14:18:40;;;;;;;4.72;4.32;;;;;;;;;;5094016;28;20479;-68
2023/06/11 14:21:07;;;;;;;4.90;4.50;;;;;;;;;;5106258;28;20047;-68
2023/06/11 14:23:35;;;;;;;5.80;4.45;;;;;;;;;;5104177;28;20048;-68
2023/06/11 14:26:02;;;;;;;4.70;4.30;;;;;;;;;;5105602;28;20051;-68
2023/06/11 14:28:30;;;;;;;5.82;3.92;;;;;;;;;;5104417;28;20513;-68
2023/06/11 14:30:57;;;;;;;4.57;4.18;;;;;;;;;;5105584;28;20048;-68
2023/06/11 14:33:25;;;;;;;4.80;4.38;;;;;;;;;;5109774;28;20058;-68
2023/06/11 14:35:54;;;;;;;4.63;4.22;;;;;;;;;;5106440;28;20051;-68
2023/06/11 14:38:21;;;;;;;4.60;4.20;;;;;;;;;;5103500;28;20044;-68
2023/06/11 14:40:49;;;;;;;5.10;4.60;;;;;;;;;;5102393;28;20066;-68
2023/06/11 14:43:16;;;;;;;5.35;4.80;;;;;;;;;;5107227;28;20384;-68
2023/06/11 14:45:44;;;;;;;4.70;4.30;;;;;;;;;;5106771;28;20059;-68
2023/06/11 14:48:11;;;;;;;4.85;4.45;;;;;;;;;;5104033;28;20126;-67